sensor_id;sensor_type;location;lat;lon;timestamp;pressure;altitude;pressure_sealevel;temperature;humidity
53340;BME280;46212;50.258;19.062;2022-07-29T00:01:28;98796.81;;;17.07;62.76
53340;BME280;46212;50.258;19.062;2022-07-29T00:03:53;98802.31;;;17.27;62.45
53340;BME280;46212;50.258;19.062;2022-07-29T00:06:18;98798.81;;;17.00;63.05
53340;BME280;46212;50.258;19.062;2022-07-29T00:08:44;98803.34;;;16.98;63.12
53340;BME280;46212;50.258;19.062;2022-07-29T00:11:09;98800.91;;;16.80;63.51
53340;BME280;46212;50.258;19.062;2022-07-29T00:13:34;98798.81;;;16.75;63.54
53340;BME280;46212;50.258;19.062;2022-07-29T00:15:59;98796.47;;;16.93;62.96
53340;BME280;46212;50.258;19.062;2022-07-29T00:18:24;98791.59;;;16.88;62.91
53340;BME280;46212;50.258;19.062;2022-07-29T00:20:50;98794.00;;;17.01;62.22
53340;BME280;46212;50.258;19.062;2022-07-29T00:23:15;98791.34;;;16.86;62.72
53340;BME280;46212;50.258;19.062;2022-07-29T00:25:40;98786.25;;;16.85;62.44
53340;BME280;46212;50.258;19.062;2022-07-29T00:28:06;98776.59;;;16.80;62.81
53340;BME280;46212;50.258;19.062;2022-07-29T00:30:31;98783.78;;;16.92;62.21
53340;BME280;46212;50.258;19.062;2022-07-29T00:32:56;98784.66;;;16.78;62.38
53340;BME280;46212;50.258;19.062;2022-07-29T00:35:21;98785.34;;;16.68;62.97
53340;BME280;46212;50.258;19.062;2022-07-29T00:38:05;98783.00;;;16.61;62.96
53340;BME280;46212;50.258;19.062;2022-07-29T00:40:30;98782.22;;;16.60;63.00
53340;BME280;46212;50.258;19.062;2022-07-29T00:42:56;98779.91;;;16.59;63.25
53340;BME280;46212;50.258;19.062;2022-07-29T00:45:21;98772.59;;;16.61;62.62
53340;BME280;46212;50.258;19.062;2022-07-29T00:47:49;98774.63;;;16.61;62.76
53340;BME280;46212;50.258;19.062;2022-07-29T00:50:15;98770.69;;;16.53;62.50
53340;BME280;46212;50.258;19.062;2022-07-29T00:52:41;98778.72;;;16.65;62.15
53340;BME280;46212;50.258;19.062;2022-07-29T00:55:07;98776.13;;;16.62;62.43
53340;BME280;46212;50.258;19.062;2022-07-29T00:57:33;98781.19;;;16.58;62.36
53340;BME280;46212;50.258;19.062;2022-07-29T00:59:59;98773.91;;;16.66;62.40
53340;BME280;46212;50.258;19.062;2022-07-29T01:02:24;98769.66;;;16.70;61.45
53340;BME280;46212;50.258;19.062;2022-07-29T01:04:50;98768.66;;;16.73;61.80
53340;BME280;46212;50.258;19.062;2022-07-29T01:07:15;98767.16;;;16.78;60.98
53340;BME280;46212;50.258;19.062;2022-07-29T01:09:41;98768.03;;;16.89;60.34
53340;BME280;46212;50.258;19.062;2022-07-29T01:12:07;98766.34;;;16.72;61.22
53340;BME280;46212;50.258;19.062;2022-07-29T01:14:32;98764.84;;;16.71;61.27
53340;BME280;46212;50.258;19.062;2022-07-29T01:17:05;98752.84;;;17.27;58.80
53340;BME280;46212;50.258;19.062;2022-07-29T01:21:59;98751.81;;;17.25;58.02
53340;BME280;46212;50.258;19.062;2022-07-29T01:29:45;98753.97;;;16.78;58.77
53340;BME280;46212;50.258;19.062;2022-07-29T01:32:15;98752.06;;;16.90;58.87
53340;BME280;46212;50.258;19.062;2022-07-29T01:34:45;98756.75;;;17.10;58.40
53340;BME280;46212;50.258;19.062;2022-07-29T01:39:57;98752.09;;;17.32;57.19
53340;BME280;46212;50.258;19.062;2022-07-29T01:45:02;98749.63;;;17.40;56.31
53340;BME280;46212;50.258;19.062;2022-07-29T01:47:35;98744.28;;;17.36;56.31
53340;BME280;46212;50.258;19.062;2022-07-29T01:50:03;98743.03;;;17.06;57.06
53340;BME280;46212;50.258;19.062;2022-07-29T01:52:31;98741.34;;;17.14;56.82
53340;BME280;46212;50.258;19.062;2022-07-29T01:54:59;98736.47;;;17.46;56.06
53340;BME280;46212;50.258;19.062;2022-07-29T01:57:28;98734.69;;;17.48;56.06
53340;BME280;46212;50.258;19.062;2022-07-29T01:59:54;98725.09;;;17.55;55.05
53340;BME280;46212;50.258;19.062;2022-07-29T02:02:21;98731.66;;;17.52;54.77
53340;BME280;46212;50.258;19.062;2022-07-29T02:04:47;98738.50;;;17.51;55.11
53340;BME280;46212;50.258;19.062;2022-07-29T02:07:15;98730.13;;;17.51;54.50
53340;BME280;46212;50.258;19.062;2022-07-29T02:09:41;98727.81;;;17.44;55.00
53340;BME280;46212;50.258;19.062;2022-07-29T02:12:08;98727.19;;;17.23;55.97
53340;BME280;46212;50.258;19.062;2022-07-29T02:14:36;98722.97;;;17.39;55.12
53340;BME280;46212;50.258;19.062;2022-07-29T02:17:02;98729.00;;;17.32;55.23
53340;BME280;46212;50.258;19.062;2022-07-29T02:19:28;98727.09;;;17.54;54.39
53340;BME280;46212;50.258;19.062;2022-07-29T02:21:54;98726.97;;;17.32;54.92
53340;BME280;46212;50.258;19.062;2022-07-29T02:24:22;98729.91;;;17.12;55.72
53340;BME280;46212;50.258;19.062;2022-07-29T02:26:48;98721.41;;;16.95;55.72
53340;BME280;46212;50.258;19.062;2022-07-29T02:29:14;98723.41;;;16.89;55.93
53340;BME280;46212;50.258;19.062;2022-07-29T02:31:40;98718.44;;;17.05;56.15
53340;BME280;46212;50.258;19.062;2022-07-29T02:34:08;98723.50;;;17.06;55.55
53340;BME280;46212;50.258;19.062;2022-07-29T02:36:34;98723.13;;;16.87;56.16
53340;BME280;46212;50.258;19.062;2022-07-29T02:39:00;98726.59;;;16.77;56.45
53340;BME280;46212;50.258;19.062;2022-07-29T02:41:30;98720.47;;;17.04;55.89
53340;BME280;46212;50.258;19.062;2022-07-29T02:44:01;98722.00;;;17.05;56.17
53340;BME280;46212;50.258;19.062;2022-07-29T02:46:32;98712.81;;;16.99;55.54
53340;BME280;46212;50.258;19.062;2022-07-29T02:51:34;98712.09;;;16.73;56.67
53340;BME280;46212;50.258;19.062;2022-07-29T02:54:01;98717.44;;;16.71;56.43
53340;BME280;46212;50.258;19.062;2022-07-29T02:56:29;98714.56;;;16.65;56.58
53340;BME280;46212;50.258;19.062;2022-07-29T02:59:00;98702.97;;;16.72;56.68
53340;BME280;46212;50.258;19.062;2022-07-29T03:01:28;98694.81;;;17.00;55.92
53340;BME280;46212;50.258;19.062;2022-07-29T03:03:55;98707.03;;;17.03;55.60
53340;BME280;46212;50.258;19.062;2022-07-29T03:06:21;98704.25;;;17.08;55.41
53340;BME280;46212;50.258;19.062;2022-07-29T03:08:47;98706.75;;;17.06;56.00
53340;BME280;46212;50.258;19.062;2022-07-29T03:11:13;98706.16;;;17.28;54.90
53340;BME280;46212;50.258;19.062;2022-07-29T03:13:39;98697.38;;;17.51;54.05
53340;BME280;46212;50.258;19.062;2022-07-29T03:16:05;98703.81;;;17.63;53.46
53340;BME280;46212;50.258;19.062;2022-07-29T03:18:31;98703.13;;;17.79;52.99
53340;BME280;46212;50.258;19.062;2022-07-29T03:20:56;98714.81;;;17.83;52.88
53340;BME280;46212;50.258;19.062;2022-07-29T03:23:22;98720.63;;;17.69;53.47
53340;BME280;46212;50.258;19.062;2022-07-29T03:25:51;98712.53;;;17.82;53.18
53340;BME280;46212;50.258;19.062;2022-07-29T03:28:17;98715.34;;;17.87;52.33
53340;BME280;46212;50.258;19.062;2022-07-29T03:30:42;98701.38;;;17.87;53.09
53340;BME280;46212;50.258;19.062;2022-07-29T03:33:07;98700.59;;;17.81;53.59
53340;BME280;46212;50.258;19.062;2022-07-29T03:35:33;98703.94;;;17.96;53.10
53340;BME280;46212;50.258;19.062;2022-07-29T03:37:58;98703.66;;;17.83;53.68
53340;BME280;46212;50.258;19.062;2022-07-29T03:40:34;98710.28;;;17.91;53.18
53340;BME280;46212;50.258;19.062;2022-07-29T03:43:00;98712.50;;;17.76;53.80
53340;BME280;46212;50.258;19.062;2022-07-29T03:45:26;98713.59;;;17.95;53.25
53340;BME280;46212;50.258;19.062;2022-07-29T03:47:55;98703.97;;;18.08;52.82
53340;BME280;46212;50.258;19.062;2022-07-29T03:50:21;98710.06;;;18.06;52.76
53340;BME280;46212;50.258;19.062;2022-07-29T03:52:47;98704.50;;;18.17;52.37
53340;BME280;46212;50.258;19.062;2022-07-29T03:55:13;98702.75;;;18.20;52.63
53340;BME280;46212;50.258;19.062;2022-07-29T03:57:38;98698.41;;;18.13;52.46
53340;BME280;46212;50.258;19.062;2022-07-29T04:00:04;98695.88;;;18.21;52.30
53340;BME280;46212;50.258;19.062;2022-07-29T04:02:31;98698.94;;;18.23;52.41
53340;BME280;46212;50.258;19.062;2022-07-29T04:04:57;98697.16;;;18.20;52.36
53340;BME280;46212;50.258;19.062;2022-07-29T04:07:22;98694.59;;;18.22;52.57
53340;BME280;46212;50.258;19.062;2022-07-29T04:09:47;98697.69;;;18.35;52.00
53340;BME280;46212;50.258;19.062;2022-07-29T04:12:13;98695.91;;;18.37;52.09
53340;BME280;46212;50.258;19.062;2022-07-29T04:14:38;98707.09;;;18.43;51.88
53340;BME280;46212;50.258;19.062;2022-07-29T04:17:03;98712.22;;;18.61;51.79
53340;BME280;46212;50.258;19.062;2022-07-29T04:19:29;98704.84;;;18.52;52.02
53340;BME280;46212;50.258;19.062;2022-07-29T04:21:55;98703.28;;;18.46;52.41
53340;BME280;46212;50.258;19.062;2022-07-29T04:24:20;98714.50;;;18.68;52.07
53340;BME280;46212;50.258;19.062;2022-07-29T04:26:45;98712.72;;;18.82;51.04
53340;BME280;46212;50.258;19.062;2022-07-29T04:29:11;98713.00;;;18.89;51.16
53340;BME280;46212;50.258;19.062;2022-07-29T04:31:37;98707.38;;;18.78;51.43
53340;BME280;46212;50.258;19.062;2022-07-29T04:34:02;98710.47;;;18.80;51.75
53340;BME280;46212;50.258;19.062;2022-07-29T04:36:27;98709.16;;;18.81;51.94
53340;BME280;46212;50.258;19.062;2022-07-29T04:38:52;98707.91;;;18.99;51.10
53340;BME280;46212;50.258;19.062;2022-07-29T04:41:17;98702.81;;;18.92;51.50
53340;BME280;46212;50.258;19.062;2022-07-29T04:43:43;98706.84;;;18.96;51.40
53340;BME280;46212;50.258;19.062;2022-07-29T04:46:08;98699.50;;;18.99;50.48
53340;BME280;46212;50.258;19.062;2022-07-29T04:48:33;98701.78;;;18.95;50.98
53340;BME280;46212;50.258;19.062;2022-07-29T04:50:58;98700.25;;;18.94;51.35
53340;BME280;46212;50.258;19.062;2022-07-29T04:53:24;98696.47;;;18.86;51.44
53340;BME280;46212;50.258;19.062;2022-07-29T04:55:49;98696.69;;;18.88;51.76
53340;BME280;46212;50.258;19.062;2022-07-29T04:58:14;98692.38;;;18.87;52.28
53340;BME280;46212;50.258;19.062;2022-07-29T05:00:40;98696.19;;;19.00;52.58
53340;BME280;46212;50.258;19.062;2022-07-29T05:03:05;98690.84;;;19.08;51.89
53340;BME280;46212;50.258;19.062;2022-07-29T05:05:30;98693.88;;;19.10;51.82
53340;BME280;46212;50.258;19.062;2022-07-29T05:07:56;98692.34;;;19.20;51.81
53340;BME280;46212;50.258;19.062;2022-07-29T05:10:21;98702.50;;;19.23;51.52
53340;BME280;46212;50.258;19.062;2022-07-29T05:12:46;98691.53;;;19.25;52.24
53340;BME280;46212;50.258;19.062;2022-07-29T05:15:12;98693.31;;;19.28;51.94
53340;BME280;46212;50.258;19.062;2022-07-29T05:17:37;98689.75;;;19.33;51.87
53340;BME280;46212;50.258;19.062;2022-07-29T05:20:02;98693.06;;;19.43;52.00
53340;BME280;46212;50.258;19.062;2022-07-29T05:22:28;98699.44;;;19.43;51.88
53340;BME280;46212;50.258;19.062;2022-07-29T05:24:53;98698.63;;;19.54;51.79
53340;BME280;46212;50.258;19.062;2022-07-29T05:27:18;98697.03;;;19.70;51.14
53340;BME280;46212;50.258;19.062;2022-07-29T05:29:44;98699.88;;;19.64;51.05
53340;BME280;46212;50.258;19.062;2022-07-29T05:32:09;98692.94;;;19.76;51.63
53340;BME280;46212;50.258;19.062;2022-07-29T05:34:34;98694.41;;;19.88;51.08
53340;BME280;46212;50.258;19.062;2022-07-29T05:36:59;98706.66;;;19.85;51.11
53340;BME280;46212;50.258;19.062;2022-07-29T05:39:25;98708.19;;;19.86;51.70
53340;BME280;46212;50.258;19.062;2022-07-29T05:41:50;98703.91;;;19.74;51.93
53340;BME280;46212;50.258;19.062;2022-07-29T05:44:15;98712.03;;;19.78;51.88
53340;BME280;46212;50.258;19.062;2022-07-29T05:46:40;98701.06;;;19.80;51.88
53340;BME280;46212;50.258;19.062;2022-07-29T05:49:06;98697.75;;;19.87;51.96
53340;BME280;46212;50.258;19.062;2022-07-29T05:51:35;98698.88;;;20.08;51.60
53340;BME280;46212;50.258;19.062;2022-07-29T05:54:00;98687.84;;;20.21;51.38
53340;BME280;46212;50.258;19.062;2022-07-29T05:56:26;98696.03;;;20.19;51.87
53340;BME280;46212;50.258;19.062;2022-07-29T05:58:51;98685.03;;;20.32;51.39
53340;BME280;46212;50.258;19.062;2022-07-29T06:01:17;98687.69;;;20.49;50.85
53340;BME280;46212;50.258;19.062;2022-07-29T06:03:42;98689.66;;;20.59;50.93
53340;BME280;46212;50.258;19.062;2022-07-29T06:06:08;98692.41;;;20.65;50.92
53340;BME280;46212;50.258;19.062;2022-07-29T06:08:33;98689.25;;;20.80;50.53
53340;BME280;46212;50.258;19.062;2022-07-29T06:10:59;98686.19;;;20.78;50.50
53340;BME280;46212;50.258;19.062;2022-07-29T06:13:24;98678.66;;;20.91;50.48
53340;BME280;46212;50.258;19.062;2022-07-29T06:15:49;98674.31;;;20.96;50.16
53340;BME280;46212;50.258;19.062;2022-07-29T06:18:15;98668.34;;;21.05;49.50
53340;BME280;46212;50.258;19.062;2022-07-29T06:20:40;98675.44;;;21.06;49.89
53340;BME280;46212;50.258;19.062;2022-07-29T06:23:05;98677.50;;;21.11;50.04
53340;BME280;46212;50.258;19.062;2022-07-29T06:25:31;98675.59;;;21.19;49.71
53340;BME280;46212;50.258;19.062;2022-07-29T06:27:59;98681.19;;;21.25;49.45
53340;BME280;46212;50.258;19.062;2022-07-29T06:30:24;98683.63;;;21.34;49.64
53340;BME280;46212;50.258;19.062;2022-07-29T06:32:50;98684.09;;;21.38;49.53
53340;BME280;46212;50.258;19.062;2022-07-29T06:35:15;98687.78;;;21.51;49.55
53340;BME280;46212;50.258;19.062;2022-07-29T06:37:40;98694.19;;;21.70;49.46
53340;BME280;46212;50.258;19.062;2022-07-29T06:40:05;98699.91;;;21.84;49.20
53340;BME280;46212;50.258;19.062;2022-07-29T06:42:49;98689.13;;;21.88;49.06
53340;BME280;46212;50.258;19.062;2022-07-29T06:45:14;98699.44;;;22.04;48.43
53340;BME280;46212;50.258;19.062;2022-07-29T06:47:41;98698.50;;;22.14;48.82
53340;BME280;46212;50.258;19.062;2022-07-29T06:50:06;98694.31;;;22.21;48.55
53340;BME280;46212;50.258;19.062;2022-07-29T06:52:31;98701.59;;;22.30;49.16
53340;BME280;46212;50.258;19.062;2022-07-29T06:54:57;98693.38;;;22.50;48.18
53340;BME280;46212;50.258;19.062;2022-07-29T06:57:22;98688.59;;;22.77;47.77
53340;BME280;46212;50.258;19.062;2022-07-29T06:59:47;98686.13;;;22.87;47.59
53340;BME280;46212;50.258;19.062;2022-07-29T07:02:13;98684.13;;;23.00;47.15
53340;BME280;46212;50.258;19.062;2022-07-29T07:04:38;98679.47;;;23.03;46.90
53340;BME280;46212;50.258;19.062;2022-07-29T07:07:03;98682.75;;;23.20;45.98
53340;BME280;46212;50.258;19.062;2022-07-29T07:09:29;98677.56;;;23.24;45.94
53340;BME280;46212;50.258;19.062;2022-07-29T07:11:54;98680.47;;;23.32;45.92
53340;BME280;46212;50.258;19.062;2022-07-29T07:14:19;98676.13;;;23.17;47.43
53340;BME280;46212;50.258;19.062;2022-07-29T07:16:44;98683.72;;;23.36;46.48
53340;BME280;46212;50.258;19.062;2022-07-29T07:19:10;98690.88;;;23.37;47.34
53340;BME280;46212;50.258;19.062;2022-07-29T07:21:35;98684.41;;;23.42;46.76
53340;BME280;46212;50.258;19.062;2022-07-29T07:24:00;98686.00;;;23.24;47.61
53340;BME280;46212;50.258;19.062;2022-07-29T07:26:25;98684.03;;;23.19;47.94
53340;BME280;46212;50.258;19.062;2022-07-29T07:28:51;98690.13;;;23.23;47.49
53340;BME280;46212;50.258;19.062;2022-07-29T07:31:16;98684.47;;;23.23;48.12
53340;BME280;46212;50.258;19.062;2022-07-29T07:33:41;98686.00;;;23.24;48.14
53340;BME280;46212;50.258;19.062;2022-07-29T07:36:07;98686.66;;;23.30;48.31
53340;BME280;46212;50.258;19.062;2022-07-29T07:38:32;98683.28;;;23.32;48.28
53340;BME280;46212;50.258;19.062;2022-07-29T07:40:57;98681.25;;;23.45;48.54
53340;BME280;46212;50.258;19.062;2022-07-29T07:43:22;98683.13;;;23.56;49.42
53340;BME280;46212;50.258;19.062;2022-07-29T07:45:48;98675.59;;;23.85;48.88
53340;BME280;46212;50.258;19.062;2022-07-29T07:48:13;98685.09;;;24.08;47.02
53340;BME280;46212;50.258;19.062;2022-07-29T07:50:38;98690.97;;;24.10;47.28
53340;BME280;46212;50.258;19.062;2022-07-29T07:53:03;98691.34;;;24.27;48.14
53340;BME280;46212;50.258;19.062;2022-07-29T07:55:29;98688.50;;;24.40;46.15
53340;BME280;46212;50.258;19.062;2022-07-29T07:57:54;98682.78;;;24.53;45.78
53340;BME280;46212;50.258;19.062;2022-07-29T08:00:20;98679.34;;;24.68;45.38
53340;BME280;46212;50.258;19.062;2022-07-29T08:02:45;98680.19;;;24.76;44.69
53340;BME280;46212;50.258;19.062;2022-07-29T08:05:10;98683.00;;;24.76;45.16
53340;BME280;46212;50.258;19.062;2022-07-29T08:07:37;98674.28;;;24.87;44.90
53340;BME280;46212;50.258;19.062;2022-07-29T08:10:02;98674.63;;;25.04;43.95
53340;BME280;46212;50.258;19.062;2022-07-29T08:12:27;98675.72;;;25.01;44.79
53340;BME280;46212;50.258;19.062;2022-07-29T08:14:53;98681.41;;;25.09;44.27
53340;BME280;46212;50.258;19.062;2022-07-29T08:17:19;98681.41;;;25.09;45.34
53340;BME280;46212;50.258;19.062;2022-07-29T08:19:44;98676.53;;;25.09;45.11
53340;BME280;46212;50.258;19.062;2022-07-29T08:22:09;98674.53;;;25.17;43.91
53340;BME280;46212;50.258;19.062;2022-07-29T08:24:34;98680.22;;;25.25;43.91
53340;BME280;46212;50.258;19.062;2022-07-29T08:27:12;98684.31;;;25.16;44.62
53340;BME280;46212;50.258;19.062;2022-07-29T08:29:38;98669.84;;;24.99;44.94
53340;BME280;46212;50.258;19.062;2022-07-29T08:32:04;98674.09;;;25.13;45.15
53340;BME280;46212;50.258;19.062;2022-07-29T08:34:29;98668.03;;;25.37;45.09
53340;BME280;46212;50.258;19.062;2022-07-29T08:36:55;98667.63;;;25.54;45.60
53340;BME280;46212;50.258;19.062;2022-07-29T08:39:21;98662.84;;;25.77;43.04
53340;BME280;46212;50.258;19.062;2022-07-29T08:41:46;98657.56;;;25.81;42.63
53340;BME280;46212;50.258;19.062;2022-07-29T08:44:12;98662.84;;;25.85;42.78
53340;BME280;46212;50.258;19.062;2022-07-29T08:46:38;98675.69;;;25.86;43.25
53340;BME280;46212;50.258;19.062;2022-07-29T08:49:04;98673.84;;;25.96;42.96
53340;BME280;46212;50.258;19.062;2022-07-29T08:51:29;98679.56;;;25.68;43.79
53340;BME280;46212;50.258;19.062;2022-07-29T08:53:55;98670.84;;;26.02;42.00
53340;BME280;46212;50.258;19.062;2022-07-29T08:56:21;98675.28;;;26.18;42.13
53340;BME280;46212;50.258;19.062;2022-07-29T08:58:47;98673.09;;;25.96;43.67
53340;BME280;46212;50.258;19.062;2022-07-29T09:01:13;98676.03;;;26.18;42.45
53340;BME280;46212;50.258;19.062;2022-07-29T09:03:41;98669.47;;;26.38;41.58
53340;BME280;46212;50.258;19.062;2022-07-29T09:06:08;98675.72;;;26.52;40.67
53340;BME280;46212;50.258;19.062;2022-07-29T09:08:34;98670.28;;;26.54;40.65
53340;BME280;46212;50.258;19.062;2022-07-29T09:11:02;98669.91;;;26.73;40.48
53340;BME280;46212;50.258;19.062;2022-07-29T09:13:28;98671.09;;;26.85;41.95
53340;BME280;46212;50.258;19.062;2022-07-29T09:15:53;98669.16;;;27.18;41.58
53340;BME280;46212;50.258;19.062;2022-07-29T09:18:33;98667.28;;;27.43;39.25
53340;BME280;46212;50.258;19.062;2022-07-29T09:20:58;98666.31;;;27.56;39.06
53340;BME280;46212;50.258;19.062;2022-07-29T09:23:58;98665.13;;;27.66;38.60
53340;BME280;46212;50.258;19.062;2022-07-29T09:26:27;98668.00;;;27.51;39.97
53340;BME280;46212;50.258;19.062;2022-07-29T09:28:52;98660.66;;;27.48;39.66
53340;BME280;46212;50.258;19.062;2022-07-29T09:31:17;98662.34;;;27.51;40.33
53340;BME280;46212;50.258;19.062;2022-07-29T09:33:48;98661.19;;;27.62;39.74
53340;BME280;46212;50.258;19.062;2022-07-29T09:36:15;98663.16;;;27.91;38.51
53340;BME280;46212;50.258;19.062;2022-07-29T09:38:41;98656.31;;;28.10;38.30
53340;BME280;46212;50.258;19.062;2022-07-29T09:41:06;98660.06;;;28.44;38.37
53340;BME280;46212;50.258;19.062;2022-07-29T09:43:33;98660.13;;;28.69;37.60
53340;BME280;46212;50.258;19.062;2022-07-29T09:46:11;98654.59;;;28.71;38.05
53340;BME280;46212;50.258;19.062;2022-07-29T09:48:37;98649.75;;;29.06;36.07
53340;BME280;46212;50.258;19.062;2022-07-29T09:51:02;98647.72;;;29.24;35.20
53340;BME280;46212;50.258;19.062;2022-07-29T09:53:31;98642.31;;;29.35;35.26
53340;BME280;46212;50.258;19.062;2022-07-29T09:55:57;98651.28;;;29.49;35.85
53340;BME280;46212;50.258;19.062;2022-07-29T09:58:22;98643.72;;;29.27;36.99
53340;BME280;46212;50.258;19.062;2022-07-29T10:00:49;98635.19;;;29.61;35.56
53340;BME280;46212;50.258;19.062;2022-07-29T10:03:14;98641.97;;;29.66;35.82
53340;BME280;46212;50.258;19.062;2022-07-29T10:05:40;98634.97;;;29.84;35.45
53340;BME280;46212;50.258;19.062;2022-07-29T10:08:07;98633.25;;;29.98;33.70
53340;BME280;46212;50.258;19.062;2022-07-29T10:10:34;98628.09;;;29.87;33.68
53340;BME280;46212;50.258;19.062;2022-07-29T10:13:01;98631.84;;;29.89;34.21
53340;BME280;46212;50.258;19.062;2022-07-29T10:15:27;98630.00;;;29.84;34.18
53340;BME280;46212;50.258;19.062;2022-07-29T10:17:54;98640.28;;;29.80;34.63
53340;BME280;46212;50.258;19.062;2022-07-29T10:20:20;98632.44;;;29.71;34.57
53340;BME280;46212;50.258;19.062;2022-07-29T10:22:46;98627.50;;;29.71;34.53
53340;BME280;46212;50.258;19.062;2022-07-29T10:25:12;98630.84;;;29.60;34.08
53340;BME280;46212;50.258;19.062;2022-07-29T10:27:37;98634.53;;;29.36;36.01
53340;BME280;46212;50.258;19.062;2022-07-29T10:30:06;98632.28;;;29.51;34.42
53340;BME280;46212;50.258;19.062;2022-07-29T10:35:18;98623.31;;;29.55;35.37
53340;BME280;46212;50.258;19.062;2022-07-29T10:43:18;98611.25;;;30.25;33.90
53340;BME280;46212;50.258;19.062;2022-07-29T10:45:45;98617.41;;;30.58;32.10
53340;BME280;46212;50.258;19.062;2022-07-29T10:48:11;98613.25;;;30.69;31.48
53340;BME280;46212;50.258;19.062;2022-07-29T10:50:56;98619.44;;;30.84;32.67
53340;BME280;46212;50.258;19.062;2022-07-29T10:53:30;98601.50;;;31.01;32.18
53340;BME280;46212;50.258;19.062;2022-07-29T10:56:22;98611.75;;;31.23;31.09
53340;BME280;46212;50.258;19.062;2022-07-29T10:59:21;98613.25;;;31.24;31.99
53340;BME280;46212;50.258;19.062;2022-07-29T11:01:34;98623.91;;;31.43;30.93
53340;BME280;46212;50.258;19.062;2022-07-29T11:03:59;98613.09;;;31.13;32.67
53340;BME280;46212;50.258;19.062;2022-07-29T11:06:24;98619.28;;;31.38;32.19
53340;BME280;46212;50.258;19.062;2022-07-29T11:09:14;98615.88;;;31.58;32.10
53340;BME280;46212;50.258;19.062;2022-07-29T11:11:36;98615.69;;;31.76;30.84
53340;BME280;46212;50.258;19.062;2022-07-29T11:14:02;98609.97;;;31.85;30.90
53340;BME280;46212;50.258;19.062;2022-07-29T11:16:31;98610.44;;;31.82;30.93
53340;BME280;46212;50.258;19.062;2022-07-29T11:21:40;98616.31;;;31.55;31.01
53340;BME280;46212;50.258;19.062;2022-07-29T11:24:18;98606.69;;;31.70;31.42
53340;BME280;46212;50.258;19.062;2022-07-29T11:26:45;98611.06;;;31.71;29.72
53340;BME280;46212;50.258;19.062;2022-07-29T11:29:30;98604.13;;;31.83;28.94
53340;BME280;46212;50.258;19.062;2022-07-29T11:32:07;98602.31;;;31.69;29.24
53340;BME280;46212;50.258;19.062;2022-07-29T11:34:33;98605.78;;;31.67;30.64
53340;BME280;46212;50.258;19.062;2022-07-29T11:47:21;98611.59;;;32.17;30.38
53340;BME280;46212;50.258;19.062;2022-07-29T11:49:46;98612.56;;;32.81;28.80
53340;BME280;46212;50.258;19.062;2022-07-29T11:52:12;98603.97;;;33.33;28.85
53340;BME280;46212;50.258;19.062;2022-07-29T11:54:38;98605.72;;;33.59;28.51
53340;BME280;46212;50.258;19.062;2022-07-29T11:57:06;98609.59;;;33.85;27.20
53340;BME280;46212;50.258;19.062;2022-07-29T11:59:32;98605.53;;;34.00;26.83
53340;BME280;46212;50.258;19.062;2022-07-29T12:02:03;98614.38;;;34.04;28.05
53340;BME280;46212;50.258;19.062;2022-07-29T12:04:28;98595.91;;;34.40;26.34
53340;BME280;46212;50.258;19.062;2022-07-29T12:06:55;98603.16;;;34.52;26.02
53340;BME280;46212;50.258;19.062;2022-07-29T12:09:21;98598.53;;;34.24;26.15
53340;BME280;46212;50.258;19.062;2022-07-29T12:11:47;98596.78;;;34.31;26.05
53340;BME280;46212;50.258;19.062;2022-07-29T12:14:28;98609.59;;;34.18;26.15
53340;BME280;46212;50.258;19.062;2022-07-29T12:16:53;98609.78;;;33.66;27.63
53340;BME280;46212;50.258;19.062;2022-07-29T12:19:18;98606.97;;;33.56;27.80
53340;BME280;46212;50.258;19.062;2022-07-29T12:21:45;98605.22;;;33.51;28.35
53340;BME280;46212;50.258;19.062;2022-07-29T12:24:10;98606.56;;;33.50;27.40
53340;BME280;46212;50.258;19.062;2022-07-29T12:26:36;98597.13;;;33.27;28.39
53340;BME280;46212;50.258;19.062;2022-07-29T12:29:02;98605.13;;;33.40;28.16
53340;BME280;46212;50.258;19.062;2022-07-29T12:31:27;98600.47;;;32.92;29.04
53340;BME280;46212;50.258;19.062;2022-07-29T12:33:52;98602.66;;;33.46;27.38
53340;BME280;46212;50.258;19.062;2022-07-29T12:36:18;98600.78;;;33.93;26.53
53340;BME280;46212;50.258;19.062;2022-07-29T12:38:44;98598.91;;;33.97;27.06
53340;BME280;46212;50.258;19.062;2022-07-29T12:41:09;98596.53;;;33.94;26.74
53340;BME280;46212;50.258;19.062;2022-07-29T12:43:35;98595.56;;;33.68;27.17
53340;BME280;46212;50.258;19.062;2022-07-29T12:46:11;98597.94;;;33.08;27.65
53340;BME280;46212;50.258;19.062;2022-07-29T12:48:38;98587.00;;;33.04;28.32
53340;BME280;46212;50.258;19.062;2022-07-29T12:51:04;98599.66;;;33.01;27.62
53340;BME280;46212;50.258;19.062;2022-07-29T12:53:31;98595.06;;;33.39;27.73
53340;BME280;46212;50.258;19.062;2022-07-29T12:55:57;98597.00;;;33.79;26.81
53340;BME280;46212;50.258;19.062;2022-07-29T12:58:27;98585.72;;;33.92;26.76
53340;BME280;46212;50.258;19.062;2022-07-29T13:00:59;98583.16;;;34.20;25.97
53340;BME280;46212;50.258;19.062;2022-07-29T13:03:24;98574.59;;;34.43;26.24
53340;BME280;46212;50.258;19.062;2022-07-29T13:05:49;98567.59;;;34.57;25.84
53340;BME280;46212;50.258;19.062;2022-07-29T13:08:16;98570.22;;;35.00;25.35
53340;BME280;46212;50.258;19.062;2022-07-29T13:10:43;98569.44;;;35.23;25.12
53340;BME280;46212;50.258;19.062;2022-07-29T13:13:13;98577.31;;;35.84;23.89
53340;BME280;46212;50.258;19.062;2022-07-29T13:15:39;98570.47;;;36.42;23.20
53340;BME280;46212;50.258;19.062;2022-07-29T13:18:05;98562.38;;;37.47;22.92
53340;BME280;46212;50.258;19.062;2022-07-29T13:20:50;98571.25;;;38.57;21.28
53340;BME280;46212;50.258;19.062;2022-07-29T13:23:15;98559.00;;;39.39;19.69
53340;BME280;46212;50.258;19.062;2022-07-29T13:25:40;98552.47;;;39.56;19.52